sensor_id;sensor_type;location;lat;lon;timestamp;temperature;humidity
16315;DHT22;8266;52.150;4.768;2022-12-29T00:00:20;13.50;99.90
16315;DHT22;8266;52.150;4.768;2022-12-29T00:02:48;13.50;99.90
16315;DHT22;8266;52.150;4.768;2022-12-29T00:05:15;13.50;99.90
16315;DHT22;8266;52.150;4.768;2022-12-29T00:07:42;13.50;99.90
16315;DHT22;8266;52.150;4.768;2022-12-29T00:10:09;13.50;99.90
16315;DHT22;8266;52.150;4.768;2022-12-29T00:12:36;13.60;99.90
16315;DHT22;8266;52.150;4.768;2022-12-29T00:15:21;13.60;99.90
16315;DHT22;8266;52.150;4.768;2022-12-29T00:18:08;13.60;99.90
16315;DHT22;8266;52.150;4.768;2022-12-29T00:20:35;13.60;99.90
16315;DHT22;8266;52.150;4.768;2022-12-29T00:23:20;13.60;99.90
16315;DHT22;8266;52.150;4.768;2022-12-29T00:26:11;13.60;99.90
16315;DHT22;8266;52.150;4.768;2022-12-29T00:28:57;13.60;99.90
16315;DHT22;8266;52.150;4.768;2022-12-29T00:31:41;13.60;99.90
16315;DHT22;8266;52.150;4.768;2022-12-29T00:34:27;13.60;99.90
16315;DHT22;8266;52.150;4.768;2022-12-29T00:37:11;13.60;99.90
16315;DHT22;8266;52.150;4.768;2022-12-29T00:39:38;13.70;99.90
16315;DHT22;8266;52.150;4.768;2022-12-29T00:42:19;13.70;99.90
16315;DHT22;8266;52.150;4.768;2022-12-29T00:45:18;13.70;99.90
16315;DHT22;8266;52.150;4.768;2022-12-29T00:47:45;13.70;99.90
16315;DHT22;8266;52.150;4.768;2022-12-29T00:50:13;13.70;99.90
16315;DHT22;8266;52.150;4.768;2022-12-29T00:52:39;13.70;99.90
16315;DHT22;8266;52.150;4.768;2022-12-29T00:55:06;13.80;99.90
16315;DHT22;8266;52.150;4.768;2022-12-29T00:57:33;13.80;99.90
16315;DHT22;8266;52.150;4.768;2022-12-29T01:00:00;13.80;99.90
16315;DHT22;8266;52.150;4.768;2022-12-29T01:02:29;13.80;99.90
16315;DHT22;8266;52.150;4.768;2022-12-29T01:04:55;13.80;99.90
16315;DHT22;8266;52.150;4.768;2022-12-29T01:07:24;13.80;99.90
16315;DHT22;8266;52.150;4.768;2022-12-29T01:09:51;13.80;99.90
16315;DHT22;8266;52.150;4.768;2022-12-29T01:12:35;13.80;99.90
16315;DHT22;8266;52.150;4.768;2022-12-29T01:15:12;13.80;99.90
16315;DHT22;8266;52.150;4.768;2022-12-29T01:17:40;13.80;99.90
16315;DHT22;8266;52.150;4.768;2022-12-29T01:20:08;13.70;99.90
16315;DHT22;8266;52.150;4.768;2022-12-29T01:22:37;13.70;99.90
16315;DHT22;8266;52.150;4.768;2022-12-29T01:25:05;13.70;99.90
16315;DHT22;8266;52.150;4.768;2022-12-29T01:27:32;13.70;99.90
16315;DHT22;8266;52.150;4.768;2022-12-29T01:29:59;13.70;99.90
16315;DHT22;8266;52.150;4.768;2022-12-29T01:32:26;13.70;99.90
16315;DHT22;8266;52.150;4.768;2022-12-29T01:34:53;13.70;99.90
16315;DHT22;8266;52.150;4.768;2022-12-29T01:37:21;13.70;99.90
16315;DHT22;8266;52.150;4.768;2022-12-29T01:39:49;13.70;99.90
16315;DHT22;8266;52.150;4.768;2022-12-29T01:42:18;13.70;99.90
16315;DHT22;8266;52.150;4.768;2022-12-29T01:44:52;13.70;99.90
16315;DHT22;8266;52.150;4.768;2022-12-29T01:47:29;13.70;99.90
16315;DHT22;8266;52.150;4.768;2022-12-29T01:50:01;13.70;99.90
16315;DHT22;8266;52.150;4.768;2022-12-29T01:52:31;13.70;99.90
16315;DHT22;8266;52.150;4.768;2022-12-29T01:55:02;13.70;99.90
16315;DHT22;8266;52.150;4.768;2022-12-29T01:57:33;13.70;99.90
16315;DHT22;8266;52.150;4.768;2022-12-29T02:00:05;13.70;99.90
16315;DHT22;8266;52.150;4.768;2022-12-29T02:02:34;13.70;99.90
16315;DHT22;8266;52.150;4.768;2022-12-29T02:05:05;13.70;99.90
16315;DHT22;8266;52.150;4.768;2022-12-29T02:07:34;13.60;99.90
16315;DHT22;8266;52.150;4.768;2022-12-29T02:10:03;13.60;99.90
16315;DHT22;8266;52.150;4.768;2022-12-29T02:12:30;13.60;99.90
16315;DHT22;8266;52.150;4.768;2022-12-29T02:15:00;13.60;99.90
16315;DHT22;8266;52.150;4.768;2022-12-29T02:17:41;13.60;99.90
16315;DHT22;8266;52.150;4.768;2022-12-29T02:20:50;13.60;99.90
16315;DHT22;8266;52.150;4.768;2022-12-29T02:24:05;13.60;99.90
16315;DHT22;8266;52.150;4.768;2022-12-29T02:30:06;13.60;99.90
16315;DHT22;8266;52.150;4.768;2022-12-29T02:32:42;13.60;99.90
16315;DHT22;8266;52.150;4.768;2022-12-29T02:35:20;13.60;99.90
16315;DHT22;8266;52.150;4.768;2022-12-29T02:37:58;13.60;99.90
16315;DHT22;8266;52.150;4.768;2022-12-29T02:40:35;13.60;99.90
16315;DHT22;8266;52.150;4.768;2022-12-29T02:43:11;13.60;99.90
16315;DHT22;8266;52.150;4.768;2022-12-29T02:45:47;13.60;99.90
16315;DHT22;8266;52.150;4.768;2022-12-29T02:48:22;13.60;99.90
16315;DHT22;8266;52.150;4.768;2022-12-29T02:50:54;13.60;99.90
16315;DHT22;8266;52.150;4.768;2022-12-29T02:53:24;13.60;99.90
16315;DHT22;8266;52.150;4.768;2022-12-29T02:56:05;13.50;99.90
16315;DHT22;8266;52.150;4.768;2022-12-29T02:58:32;13.50;99.90
16315;DHT22;8266;52.150;4.768;2022-12-29T03:01:11;13.40;99.90
16315;DHT22;8266;52.150;4.768;2022-12-29T03:03:52;13.40;99.90
16315;DHT22;8266;52.150;4.768;2022-12-29T03:06:29;13.30;99.90
16315;DHT22;8266;52.150;4.768;2022-12-29T03:09:03;13.30;99.90
16315;DHT22;8266;52.150;4.768;2022-12-29T03:11:41;13.30;99.90
16315;DHT22;8266;52.150;4.768;2022-12-29T03:14:33;13.20;99.90
16315;DHT22;8266;52.150;4.768;2022-12-29T03:17:26;13.20;99.90
16315;DHT22;8266;52.150;4.768;2022-12-29T03:20:01;13.20;99.90
16315;DHT22;8266;52.150;4.768;2022-12-29T03:22:32;13.20;99.90
16315;DHT22;8266;52.150;4.768;2022-12-29T03:25:03;13.20;99.90
16315;DHT22;8266;52.150;4.768;2022-12-29T03:27:34;13.10;99.90
16315;DHT22;8266;52.150;4.768;2022-12-29T03:30:05;13.10;99.90
16315;DHT22;8266;52.150;4.768;2022-12-29T03:32:37;13.10;99.90
16315;DHT22;8266;52.150;4.768;2022-12-29T03:35:09;13.10;99.90
16315;DHT22;8266;52.150;4.768;2022-12-29T03:37:41;13.10;99.90
16315;DHT22;8266;52.150;4.768;2022-12-29T03:40:09;13.10;99.90
16315;DHT22;8266;52.150;4.768;2022-12-29T03:42:37;13.10;99.90
16315;DHT22;8266;52.150;4.768;2022-12-29T03:45:07;13.10;99.90
16315;DHT22;8266;52.150;4.768;2022-12-29T03:47:34;13.10;99.90
16315;DHT22;8266;52.150;4.768;2022-12-29T03:50:01;13.10;99.90
16315;DHT22;8266;52.150;4.768;2022-12-29T03:52:30;13.10;99.90
16315;DHT22;8266;52.150;4.768;2022-12-29T03:54:57;13.10;99.90
16315;DHT22;8266;52.150;4.768;2022-12-29T03:57:24;13.10;99.90
16315;DHT22;8266;52.150;4.768;2022-12-29T03:59:51;13.10;99.90
16315;DHT22;8266;52.150;4.768;2022-12-29T04:02:17;13.10;99.90
16315;DHT22;8266;52.150;4.768;2022-12-29T04:04:44;13.10;99.90
16315;DHT22;8266;52.150;4.768;2022-12-29T04:07:11;13.10;99.90
16315;DHT22;8266;52.150;4.768;2022-12-29T04:09:40;13.10;99.90
16315;DHT22;8266;52.150;4.768;2022-12-29T04:12:07;13.10;99.90
16315;DHT22;8266;52.150;4.768;2022-12-29T04:14:34;13.10;99.90
16315;DHT22;8266;52.150;4.768;2022-12-29T04:17:01;13.10;99.90
16315;DHT22;8266;52.150;4.768;2022-12-29T04:19:28;13.00;99.90
16315;DHT22;8266;52.150;4.768;2022-12-29T04:21:55;13.00;99.90
16315;DHT22;8266;52.150;4.768;2022-12-29T04:24:22;13.00;99.90
16315;DHT22;8266;52.150;4.768;2022-12-29T04:26:50;13.00;99.90
16315;DHT22;8266;52.150;4.768;2022-12-29T04:29:17;12.90;99.90
16315;DHT22;8266;52.150;4.768;2022-12-29T04:31:44;12.90;99.90
16315;DHT22;8266;52.150;4.768;2022-12-29T04:34:11;12.90;99.90
16315;DHT22;8266;52.150;4.768;2022-12-29T04:36:38;12.90;99.90
16315;DHT22;8266;52.150;4.768;2022-12-29T04:39:05;12.90;99.90
16315;DHT22;8266;52.150;4.768;2022-12-29T04:41:33;12.90;99.90
16315;DHT22;8266;52.150;4.768;2022-12-29T04:44:01;12.90;99.90
16315;DHT22;8266;52.150;4.768;2022-12-29T04:46:28;12.90;99.90
16315;DHT22;8266;52.150;4.768;2022-12-29T04:48:55;12.80;99.90
16315;DHT22;8266;52.150;4.768;2022-12-29T04:51:22;12.80;99.90
16315;DHT22;8266;52.150;4.768;2022-12-29T04:53:49;12.80;99.90
16315;DHT22;8266;52.150;4.768;2022-12-29T04:56:16;12.80;99.90
16315;DHT22;8266;52.150;4.768;2022-12-29T04:58:43;12.80;99.90
16315;DHT22;8266;52.150;4.768;2022-12-29T05:01:11;12.70;99.90
16315;DHT22;8266;52.150;4.768;2022-12-29T05:03:38;12.70;99.90
16315;DHT22;8266;52.150;4.768;2022-12-29T05:06:06;12.70;99.90
16315;DHT22;8266;52.150;4.768;2022-12-29T05:08:33;12.70;99.90
16315;DHT22;8266;52.150;4.768;2022-12-29T05:11:00;12.70;99.90
16315;DHT22;8266;52.150;4.768;2022-12-29T05:13:27;12.70;99.90
16315;DHT22;8266;52.150;4.768;2022-12-29T05:15:54;12.70;99.90
16315;DHT22;8266;52.150;4.768;2022-12-29T05:18:22;12.60;99.90
16315;DHT22;8266;52.150;4.768;2022-12-29T05:20:49;12.70;99.90
16315;DHT22;8266;52.150;4.768;2022-12-29T05:23:17;12.70;99.90
16315;DHT22;8266;52.150;4.768;2022-12-29T05:25:44;12.60;99.90
16315;DHT22;8266;52.150;4.768;2022-12-29T05:28:11;12.60;99.90
16315;DHT22;8266;52.150;4.768;2022-12-29T05:30:39;12.60;99.90
16315;DHT22;8266;52.150;4.768;2022-12-29T05:33:06;12.60;99.90
16315;DHT22;8266;52.150;4.768;2022-12-29T05:35:34;12.60;99.90
16315;DHT22;8266;52.150;4.768;2022-12-29T05:38:01;12.60;99.90
16315;DHT22;8266;52.150;4.768;2022-12-29T05:40:28;12.60;99.90
16315;DHT22;8266;52.150;4.768;2022-12-29T05:42:55;12.60;99.90
16315;DHT22;8266;52.150;4.768;2022-12-29T05:45:22;12.60;99.90
16315;DHT22;8266;52.150;4.768;2022-12-29T05:47:49;12.50;99.90
16315;DHT22;8266;52.150;4.768;2022-12-29T05:50:16;12.50;99.90
16315;DHT22;8266;52.150;4.768;2022-12-29T05:52:45;12.50;99.90
16315;DHT22;8266;52.150;4.768;2022-12-29T05:55:12;12.50;99.90
16315;DHT22;8266;52.150;4.768;2022-12-29T05:57:39;12.50;99.90
16315;DHT22;8266;52.150;4.768;2022-12-29T06:00:07;12.50;99.90
16315;DHT22;8266;52.150;4.768;2022-12-29T06:02:34;12.50;99.90
16315;DHT22;8266;52.150;4.768;2022-12-29T06:05:01;12.50;99.90
16315;DHT22;8266;52.150;4.768;2022-12-29T06:07:28;12.50;99.90
16315;DHT22;8266;52.150;4.768;2022-12-29T06:09:56;12.50;99.90
16315;DHT22;8266;52.150;4.768;2022-12-29T06:12:23;12.50;99.90
16315;DHT22;8266;52.150;4.768;2022-12-29T06:14:50;12.50;99.90
16315;DHT22;8266;52.150;4.768;2022-12-29T06:17:17;12.50;99.90
16315;DHT22;8266;52.150;4.768;2022-12-29T06:19:44;12.50;99.90
16315;DHT22;8266;52.150;4.768;2022-12-29T06:22:11;12.50;99.90
16315;DHT22;8266;52.150;4.768;2022-12-29T06:24:39;12.40;99.90
16315;DHT22;8266;52.150;4.768;2022-12-29T06:27:07;12.40;99.90
16315;DHT22;8266;52.150;4.768;2022-12-29T06:29:34;12.40;99.90
16315;DHT22;8266;52.150;4.768;2022-12-29T06:32:02;12.30;99.90
16315;DHT22;8266;52.150;4.768;2022-12-29T06:34:29;12.30;99.90
16315;DHT22;8266;52.150;4.768;2022-12-29T06:36:56;12.30;99.90
16315;DHT22;8266;52.150;4.768;2022-12-29T06:39:23;12.30;99.90
16315;DHT22;8266;52.150;4.768;2022-12-29T06:41:52;12.30;99.90
16315;DHT22;8266;52.150;4.768;2022-12-29T06:44:20;12.30;99.90
16315;DHT22;8266;52.150;4.768;2022-12-29T06:46:48;12.20;99.90
16315;DHT22;8266;52.150;4.768;2022-12-29T06:49:15;12.20;99.90
16315;DHT22;8266;52.150;4.768;2022-12-29T06:51:42;12.20;99.90
16315;DHT22;8266;52.150;4.768;2022-12-29T06:54:09;12.20;99.90
16315;DHT22;8266;52.150;4.768;2022-12-29T06:56:36;12.20;99.90
16315;DHT22;8266;52.150;4.768;2022-12-29T06:59:03;12.20;99.90
16315;DHT22;8266;52.150;4.768;2022-12-29T07:01:32;12.20;99.90
16315;DHT22;8266;52.150;4.768;2022-12-29T07:03:59;12.10;99.90
16315;DHT22;8266;52.150;4.768;2022-12-29T07:06:26;12.10;99.90
16315;DHT22;8266;52.150;4.768;2022-12-29T07:08:53;12.10;99.90
16315;DHT22;8266;52.150;4.768;2022-12-29T07:11:23;12.10;99.90
16315;DHT22;8266;52.150;4.768;2022-12-29T07:13:50;12.10;99.90
16315;DHT22;8266;52.150;4.768;2022-12-29T07:16:17;12.00;99.90
16315;DHT22;8266;52.150;4.768;2022-12-29T07:18:46;12.00;99.90
16315;DHT22;8266;52.150;4.768;2022-12-29T07:21:13;12.00;99.90
16315;DHT22;8266;52.150;4.768;2022-12-29T07:23:40;12.00;99.90
16315;DHT22;8266;52.150;4.768;2022-12-29T07:26:08;12.00;99.90
16315;DHT22;8266;52.150;4.768;2022-12-29T07:28:36;12.00;99.90
16315;DHT22;8266;52.150;4.768;2022-12-29T07:31:04;12.00;99.90
16315;DHT22;8266;52.150;4.768;2022-12-29T07:33:32;12.00;99.90
16315;DHT22;8266;52.150;4.768;2022-12-29T07:36:00;12.00;99.90
16315;DHT22;8266;52.150;4.768;2022-12-29T07:38:27;12.00;99.90
16315;DHT22;8266;52.150;4.768;2022-12-29T07:40:57;12.10;99.90
16315;DHT22;8266;52.150;4.768;2022-12-29T07:43:25;12.10;99.90
16315;DHT22;8266;52.150;4.768;2022-12-29T07:45:52;12.10;99.90
16315;DHT22;8266;52.150;4.768;2022-12-29T07:48:19;12.10;99.90
16315;DHT22;8266;52.150;4.768;2022-12-29T07:50:46;12.10;99.90
16315;DHT22;8266;52.150;4.768;2022-12-29T07:53:14;12.10;99.90
16315;DHT22;8266;52.150;4.768;2022-12-29T07:55:41;12.10;99.90
16315;DHT22;8266;52.150;4.768;2022-12-29T07:58:09;12.10;99.90
16315;DHT22;8266;52.150;4.768;2022-12-29T08:00:36;12.20;99.90
16315;DHT22;8266;52.150;4.768;2022-12-29T08:03:04;12.20;99.90
16315;DHT22;8266;52.150;4.768;2022-12-29T08:05:31;12.20;99.90
16315;DHT22;8266;52.150;4.768;2022-12-29T08:07:59;12.20;99.90
16315;DHT22;8266;52.150;4.768;2022-12-29T08:10:27;12.20;99.90
16315;DHT22;8266;52.150;4.768;2022-12-29T08:12:54;12.20;99.90
16315;DHT22;8266;52.150;4.768;2022-12-29T08:15:21;12.20;99.90
16315;DHT22;8266;52.150;4.768;2022-12-29T08:17:49;12.20;99.90
16315;DHT22;8266;52.150;4.768;2022-12-29T08:20:16;12.20;99.90
16315;DHT22;8266;52.150;4.768;2022-12-29T08:22:43;12.20;99.90
16315;DHT22;8266;52.150;4.768;2022-12-29T08:25:10;12.20;99.90
16315;DHT22;8266;52.150;4.768;2022-12-29T08:27:38;12.20;99.90
16315;DHT22;8266;52.150;4.768;2022-12-29T08:30:06;12.20;99.90
16315;DHT22;8266;52.150;4.768;2022-12-29T08:32:33;12.20;99.90
16315;DHT22;8266;52.150;4.768;2022-12-29T08:35:00;12.10;99.90
16315;DHT22;8266;52.150;4.768;2022-12-29T08:37:27;12.20;99.90
16315;DHT22;8266;52.150;4.768;2022-12-29T08:39:54;12.10;99.90
16315;DHT22;8266;52.150;4.768;2022-12-29T08:42:21;12.10;99.90
16315;DHT22;8266;52.150;4.768;2022-12-29T08:44:49;12.10;99.90
16315;DHT22;8266;52.150;4.768;2022-12-29T08:47:16;12.00;99.90
16315;DHT22;8266;52.150;4.768;2022-12-29T08:49:43;12.00;99.90
16315;DHT22;8266;52.150;4.768;2022-12-29T08:52:10;12.00;99.90
16315;DHT22;8266;52.150;4.768;2022-12-29T08:54:37;12.00;99.90
16315;DHT22;8266;52.150;4.768;2022-12-29T08:57:04;12.00;99.90
16315;DHT22;8266;52.150;4.768;2022-12-29T08:59:31;12.00;99.90
16315;DHT22;8266;52.150;4.768;2022-12-29T09:02:00;11.90;99.90
16315;DHT22;8266;52.150;4.768;2022-12-29T09:04:27;11.90;99.90
16315;DHT22;8266;52.150;4.768;2022-12-29T09:06:54;11.90;99.90
16315;DHT22;8266;52.150;4.768;2022-12-29T09:09:22;11.90;99.90
16315;DHT22;8266;52.150;4.768;2022-12-29T09:11:49;11.90;99.90
16315;DHT22;8266;52.150;4.768;2022-12-29T09:14:16;11.90;99.90
16315;DHT22;8266;52.150;4.768;2022-12-29T09:16:44;11.90;99.90
16315;DHT22;8266;52.150;4.768;2022-12-29T09:19:30;11.90;99.90
16315;DHT22;8266;52.150;4.768;2022-12-29T09:21:58;11.80;99.90
16315;DHT22;8266;52.150;4.768;2022-12-29T09:24:25;11.80;99.90
16315;DHT22;8266;52.150;4.768;2022-12-29T09:26:52;11.80;99.90
16315;DHT22;8266;52.150;4.768;2022-12-29T09:29:19;11.80;99.90
16315;DHT22;8266;52.150;4.768;2022-12-29T09:31:46;11.80;99.90
16315;DHT22;8266;52.150;4.768;2022-12-29T09:34:13;11.80;99.90
16315;DHT22;8266;52.150;4.768;2022-12-29T09:36:42;11.80;99.90
16315;DHT22;8266;52.150;4.768;2022-12-29T09:39:09;11.80;99.90
16315;DHT22;8266;52.150;4.768;2022-12-29T09:41:39;11.80;99.90
16315;DHT22;8266;52.150;4.768;2022-12-29T09:44:15;11.80;99.90
16315;DHT22;8266;52.150;4.768;2022-12-29T09:46:46;11.80;99.90
16315;DHT22;8266;52.150;4.768;2022-12-29T09:49:21;11.80;99.90
16315;DHT22;8266;52.150;4.768;2022-12-29T09:51:52;11.80;99.90
16315;DHT22;8266;52.150;4.768;2022-12-29T09:54:32;11.80;99.90
16315;DHT22;8266;52.150;4.768;2022-12-29T09:57:04;11.80;99.90
16315;DHT22;8266;52.150;4.768;2022-12-29T09:59:40;11.90;99.90
16315;DHT22;8266;52.150;4.768;2022-12-29T10:02:21;11.90;99.90
16315;DHT22;8266;52.150;4.768;2022-12-29T10:04:52;11.90;99.90
16315;DHT22;8266;52.150;4.768;2022-12-29T10:07:28;12.00;99.90
16315;DHT22;8266;52.150;4.768;2022-12-29T10:10:04;12.00;99.90
16315;DHT22;8266;52.150;4.768;2022-12-29T10:12:53;12.00;99.90
16315;DHT22;8266;52.150;4.768;2022-12-29T10:15:33;12.10;99.90
16315;DHT22;8266;52.150;4.768;2022-12-29T10:18:14;12.10;99.90
16315;DHT22;8266;52.150;4.768;2022-12-29T10:20:49;12.10;99.90
16315;DHT22;8266;52.150;4.768;2022-12-29T10:23:26;12.20;99.90
16315;DHT22;8266;52.150;4.768;2022-12-29T10:25:55;12.20;99.90
16315;DHT22;8266;52.150;4.768;2022-12-29T10:28:24;12.20;99.90
16315;DHT22;8266;52.150;4.768;2022-12-29T10:31:00;12.20;99.90
16315;DHT22;8266;52.150;4.768;2022-12-29T10:33:34;12.30;99.90
16315;DHT22;8266;52.150;4.768;2022-12-29T10:36:10;12.30;99.90
16315;DHT22;8266;52.150;4.768;2022-12-29T10:38:46;12.40;99.90
16315;DHT22;8266;52.150;4.768;2022-12-29T10:41:17;12.50;99.90
16315;DHT22;8266;52.150;4.768;2022-12-29T10:43:48;12.60;99.90
16315;DHT22;8266;52.150;4.768;2022-12-29T10:46:20;12.60;99.90
16315;DHT22;8266;52.150;4.768;2022-12-29T10:48:47;12.70;99.90
16315;DHT22;8266;52.150;4.768;2022-12-29T10:51:20;12.80;99.90
16315;DHT22;8266;52.150;4.768;2022-12-29T10:53:51;12.90;99.90
16315;DHT22;8266;52.150;4.768;2022-12-29T10:56:29;13.00;99.90
16315;DHT22;8266;52.150;4.768;2022-12-29T10:59:01;13.10;99.90
16315;DHT22;8266;52.150;4.768;2022-12-29T11:01:35;13.10;99.90
16315;DHT22;8266;52.150;4.768;2022-12-29T11:04:07;13.20;99.90
16315;DHT22;8266;52.150;4.768;2022-12-29T11:06:37;13.20;99.90
16315;DHT22;8266;52.150;4.768;2022-12-29T11:09:13;13.20;99.90
16315;DHT22;8266;52.150;4.768;2022-12-29T11:11:41;13.30;99.90
16315;DHT22;8266;52.150;4.768;2022-12-29T11:14:12;13.30;99.90
16315;DHT22;8266;52.150;4.768;2022-12-29T11:16:40;13.30;99.90
16315;DHT22;8266;52.150;4.768;2022-12-29T11:19:20;13.30;99.90
16315;DHT22;8266;52.150;4.768;2022-12-29T11:21:48;13.40;99.90
16315;DHT22;8266;52.150;4.768;2022-12-29T11:24:22;13.40;99.90
16315;DHT22;8266;52.150;4.768;2022-12-29T11:26:50;13.40;99.90
16315;DHT22;8266;52.150;4.768;2022-12-29T11:29:24;13.40;99.90
16315;DHT22;8266;52.150;4.768;2022-12-29T11:31:53;13.40;99.90
16315;DHT22;8266;52.150;4.768;2022-12-29T11:34:22;13.50;99.90
16315;DHT22;8266;52.150;4.768;2022-12-29T11:36:51;13.50;99.90
16315;DHT22;8266;52.150;4.768;2022-12-29T11:39:33;13.60;99.90
16315;DHT22;8266;52.150;4.768;2022-12-29T11:42:01;13.60;99.90
16315;DHT22;8266;52.150;4.768;2022-12-29T11:44:34;13.70;99.90
16315;DHT22;8266;52.150;4.768;2022-12-29T11:47:05;13.80;99.90
16315;DHT22;8266;52.150;4.768;2022-12-29T11:49:35;13.80;99.90
16315;DHT22;8266;52.150;4.768;2022-12-29T11:52:02;13.80;99.90
16315;DHT22;8266;52.150;4.768;2022-12-29T11:54:33;13.80;99.90
16315;DHT22;8266;52.150;4.768;2022-12-29T11:57:10;13.80;99.90
16315;DHT22;8266;52.150;4.768;2022-12-29T11:59:42;13.80;99.90
16315;DHT22;8266;52.150;4.768;2022-12-29T12:02:31;13.80;99.90
16315;DHT22;8266;52.150;4.768;2022-12-29T12:05:06;13.80;99.90
16315;DHT22;8266;52.150;4.768;2022-12-29T12:07:40;13.80;99.90
16315;DHT22;8266;52.150;4.768;2022-12-29T12:10:20;13.90;99.90
16315;DHT22;8266;52.150;4.768;2022-12-29T12:12:53;13.90;99.90
16315;DHT22;8266;52.150;4.768;2022-12-29T12:15:24;13.80;99.90
16315;DHT22;8266;52.150;4.768;2022-12-29T12:17:55;13.80;99.90
16315;DHT22;8266;52.150;4.768;2022-12-29T12:20:32;13.80;99.90
16315;DHT22;8266;52.150;4.768;2022-12-29T12:23:10;13.70;99.90
16315;DHT22;8266;52.150;4.768;2022-12-29T12:25:43;13.70;99.90
16315;DHT22;8266;52.150;4.768;2022-12-29T12:28:17;13.60;99.90
16315;DHT22;8266;52.150;4.768;2022-12-29T12:30:49;13.60;99.90
16315;DHT22;8266;52.150;4.768;2022-12-29T12:33:22;13.50;99.90
16315;DHT22;8266;52.150;4.768;2022-12-29T12:36:04;13.40;99.90
16315;DHT22;8266;52.150;4.768;2022-12-29T12:38:39;13.40;99.90
16315;DHT22;8266;52.150;4.768;2022-12-29T12:41:13;13.30;99.90
16315;DHT22;8266;52.150;4.768;2022-12-29T12:43:45;13.30;99.90
16315;DHT22;8266;52.150;4.768;2022-12-29T12:49:35;13.30;99.90
16315;DHT22;8266;52.150;4.768;2022-12-29T12:52:08;13.30;99.90
16315;DHT22;8266;52.150;4.768;2022-12-29T12:54:51;13.30;99.90
16315;DHT22;8266;52.150;4.768;2022-12-29T12:57:28;13.40;99.90
16315;DHT22;8266;52.150;4.768;2022-12-29T13:00:01;13.40;99.90
16315;DHT22;8266;52.150;4.768;2022-12-29T13:02:43;13.40;99.90
16315;DHT22;8266;52.150;4.768;2022-12-29T13:05:35;13.40;99.90
16315;DHT22;8266;52.150;4.768;2022-12-29T13:08:21;13.40;99.90
16315;DHT22;8266;52.150;4.768;2022-12-29T13:10:52;13.40;99.90
16315;DHT22;8266;52.150;4.768;2022-12-29T13:13:49;13.40;99.90
16315;DHT22;8266;52.150;4.768;2022-12-29T13:16:25;13.40;99.90
16315;DHT22;8266;52.150;4.768;2022-12-29T13:18:59;13.40;99.90
16315;DHT22;8266;52.150;4.768;2022-12-29T13:21:44;13.40;99.90
16315;DHT22;8266;52.150;4.768;2022-12-29T13:24:18;13.40;99.90
16315;DHT22;8266;52.150;4.768;2022-12-29T13:26:52;13.40;99.90
16315;DHT22;8266;52.150;4.768;2022-12-29T13:29:32;13.40;99.90
16315;DHT22;8266;52.150;4.768;2022-12-29T13:32:17;13.40;99.90
16315;DHT22;8266;52.150;4.768;2022-12-29T13:34:58;13.50;99.90
16315;DHT22;8266;52.150;4.768;2022-12-29T13:37:32;13.40;99.90
16315;DHT22;8266;52.150;4.768;2022-12-29T13:40:03;13.50;99.90
16315;DHT22;8266;52.150;4.768;2022-12-29T13:42:36;13.40;99.90
16315;DHT22;8266;52.150;4.768;2022-12-29T13:45:09;13.40;99.90
16315;DHT22;8266;52.150;4.768;2022-12-29T13:47:41;13.40;99.90
16315;DHT22;8266;52.150;4.768;2022-12-29T13:50:14;13.50;99.90
16315;DHT22;8266;52.150;4.768;2022-12-29T13:52:45;13.50;99.90
16315;DHT22;8266;52.150;4.768;2022-12-29T13:55:24;13.40;99.90
16315;DHT22;8266;52.150;4.768;2022-12-29T13:57:59;13.40;99.90
16315;DHT22;8266;52.150;4.768;2022-12-29T14:00:33;13.40;99.90
16315;DHT22;8266;52.150;4.768;2022-12-29T14:03:20;13.40;99.90
16315;DHT22;8266;52.150;4.768;2022-12-29T14:06:05;13.40;99.90
16315;DHT22;8266;52.150;4.768;2022-12-29T14:08:37;13.30;99.90
16315;DHT22;8266;52.150;4.768;2022-12-29T14:11:07;13.30;99.90
16315;DHT22;8266;52.150;4.768;2022-12-29T14:13:38;13.30;99.90
16315;DHT22;8266;52.150;4.768;2022-12-29T14:16:10;13.30;99.90
16315;DHT22;8266;52.150;4.768;2022-12-29T14:18:42;13.20;99.90
16315;DHT22;8266;52.150;4.768;2022-12-29T14:21:18;13.20;99.90
16315;DHT22;8266;52.150;4.768;2022-12-29T14:23:48;13.20;99.90
16315;DHT22;8266;52.150;4.768;2022-12-29T14:26:18;13.10;99.90
16315;DHT22;8266;52.150;4.768;2022-12-29T14:32:01;13.00;99.90
16315;DHT22;8266;52.150;4.768;2022-12-29T14:34:30;13.00;99.90
16315;DHT22;8266;52.150;4.768;2022-12-29T14:37:04;12.90;99.90
16315;DHT22;8266;52.150;4.768;2022-12-29T14:39:38;12.80;99.90
16315;DHT22;8266;52.150;4.768;2022-12-29T14:42:12;12.80;99.90
16315;DHT22;8266;52.150;4.768;2022-12-29T14:44:47;12.70;99.90
16315;DHT22;8266;52.150;4.768;2022-12-29T14:47:20;12.70;99.90
16315;DHT22;8266;52.150;4.768;2022-12-29T14:49:48;12.70;99.90
16315;DHT22;8266;52.150;4.768;2022-12-29T14:52:18;12.70;99.90
16315;DHT22;8266;52.150;4.768;2022-12-29T14:54:49;12.60;99.90
16315;DHT22;8266;52.150;4.768;2022-12-29T14:57:26;12.60;99.90
16315;DHT22;8266;52.150;4.768;2022-12-29T14:59:55;12.60;99.90
16315;DHT22;8266;52.150;4.768;2022-12-29T15:02:33;12.60;99.90
16315;DHT22;8266;52.150;4.768;2022-12-29T15:05:00;12.60;99.90
16315;DHT22;8266;52.150;4.768;2022-12-29T15:07:29;12.60;99.90
16315;DHT22;8266;52.150;4.768;2022-12-29T15:10:03;12.60;99.90
16315;DHT22;8266;52.150;4.768;2022-12-29T15:12:37;12.60;99.90
16315;DHT22;8266;52.150;4.768;2022-12-29T15:15:18;12.60;99.90
16315;DHT22;8266;52.150;4.768;2022-12-29T15:17:47;12.60;99.90
16315;DHT22;8266;52.150;4.768;2022-12-29T15:20:20;12.60;99.90
16315;DHT22;8266;52.150;4.768;2022-12-29T15:22:50;12.60;99.90
16315;DHT22;8266;52.150;4.768;2022-12-29T15:25:18;12.60;99.90
16315;DHT22;8266;52.150;4.768;2022-12-29T15:27:49;12.60;99.90
16315;DHT22;8266;52.150;4.768;2022-12-29T15:30:18;12.60;99.90
16315;DHT22;8266;52.150;4.768;2022-12-29T15:32:48;12.60;99.90
16315;DHT22;8266;52.150;4.768;2022-12-29T15:35:28;12.60;99.90
16315;DHT22;8266;52.150;4.768;2022-12-29T15:37:57;12.60;99.90
16315;DHT22;8266;52.150;4.768;2022-12-29T15:40:26;12.60;99.90
16315;DHT22;8266;52.150;4.768;2022-12-29T15:45:49;12.50;99.90
16315;DHT22;8266;52.150;4.768;2022-12-29T15:48:19;12.50;99.90
16315;DHT22;8266;52.150;4.768;2022-12-29T15:50:49;12.50;99.90
16315;DHT22;8266;52.150;4.768;2022-12-29T15:53:21;12.50;99.90
16315;DHT22;8266;52.150;4.768;2022-12-29T15:55:55;12.40;99.90
16315;DHT22;8266;52.150;4.768;2022-12-29T15:58:24;12.40;99.90
16315;DHT22;8266;52.150;4.768;2022-12-29T16:00:53;12.40;99.90
16315;DHT22;8266;52.150;4.768;2022-12-29T16:03:25;12.40;99.90
16315;DHT22;8266;52.150;4.768;2022-12-29T16:05:54;12.40;99.90
16315;DHT22;8266;52.150;4.768;2022-12-29T16:08:29;12.40;99.90
16315;DHT22;8266;52.150;4.768;2022-12-29T16:10:58;12.40;99.90
16315;DHT22;8266;52.150;4.768;2022-12-29T16:13:29;12.40;99.90
16315;DHT22;8266;52.150;4.768;2022-12-29T16:16:02;12.30;99.90
16315;DHT22;8266;52.150;4.768;2022-12-29T16:18:36;12.30;99.90
16315;DHT22;8266;52.150;4.768;2022-12-29T16:21:05;12.20;99.90
16315;DHT22;8266;52.150;4.768;2022-12-29T16:23:47;12.20;99.90